CheckWX is a tool to help pilots better visualize weather data.  It is not intended as a substitute for an official pre-flight weather briefing.

12:56:42 UTC

KVPS METAR
Eglin AFB / Destin-Ft Walton Beach Airport
Valparaiso/Destin-Ft Walton Beach, Florida, USA
Current

26 mins ago

KVPS 071231Z AUTO 26003KT 10SM CLR 25/24 A3000 RMK AO2 RAE1158RAB01E31 SLP165 $
Observed
Jul-7 @ 12:31 UTC
Wind
  • 260° at 3 KTS
Visibility
10 SM
Flight Rules
VFR
Cloud Levels
  • Clear skies
Temperature
25°C / 77°F
Dewpoint
24°C / 75°F
Humidity
94%
Altimeter
30" Hg
Pressure
1015.92 hPa
Previous

51 mins ago

KVPS 071206Z AUTO 00000KT 10SM RA SCT019 BKN033 BKN100 25/24 A3000 RMK AO2 RAE1158RAB01 SLP165 $
Observed
Jul-7 @ 12:06 UTC
Visibility
10 SM
Flight Rules
VFR
Conditions
Rain
Cloud Levels
  • Scattered at 1,900' AGL
  • Broken at 3,300' AGL
  • Broken at 10,000' AGL
Temperature
25°C / 77°F
Dewpoint
24°C / 75°F
Humidity
94%
Altimeter
30" Hg
Pressure
1015.92 hPa
Previous

1 hour ago

KVPS 071156Z AUTO 00000KT 10SM -RA SCT019 BKN025 BKN034 25/25 A3000 RMK AO2 RAB45 CIG 025V033 CIG 019 RWY01 CIG 020 RWY12 CIG 019 RWY30 SLP165 P0000 60008 70016 T02510246 10256 20247 52011 $
Observed
Jul-7 @ 11:56 UTC
Visibility
10 SM
Flight Rules
MVFR
Conditions
Light Rain
Cloud Levels
  • Scattered at 1,900' AGL
  • Broken at 2,500' AGL
  • Broken at 3,400' AGL
Temperature
25°C / 77°F
Dewpoint
25°C / 77°F
Humidity
100%
Altimeter
30" Hg
Pressure
1015.92 hPa
Current Rain
0.01"
24 Hour Rain
0.16"